Time;durP1;ratioP1;P1;durP2;ratioP2;P2;SDS_P1;SDS_P2;PMS_P1;PMS_P2;Temp;Humidity;BMP_temperature;BMP_pressure;BME280_temperature;BME280_humidity;BME280_pressure;Samples;Min_cycle;Max_cycle;Signal;HPM_P1;HPM_P2
2022/09/21 07:04:27;;;;;;;;;;;;;;;;;;;;;
2022/09/21 07:20:48;;;;;;;;;15.00;13.25;;;;;14.68;59.57;102113.13;4739476;29;45619;-73
2022/09/21 07:23:45;;;;;;;;;12.50;10.25;;;;;14.40;59.66;102062.78;4823238;29;45598;-73
2022/09/21 07:36:42;;;;;;;;;13.25;10.50;;;;;14.41;59.35;102043.06;5103058;23;45446;-89
2022/09/21 07:39:11;;;;;;;;;12.50;12.00;;;;;14.36;59.53;102040.50;4882010;28;45846;-88
2022/09/21 07:41:37;;;;;;;;;14.50;13.25;;;;;14.53;59.05;102066.00;4898535;29;45643;-88
2022/09/21 07:44:03;;;;;;;;;14.75;12.00;;;;;14.44;59.01;102051.91;4884611;29;45657;-89
2022/09/21 07:46:28;;;;;;;;;12.50;12.00;;;;;14.39;58.81;102029.66;4885956;29;45200;-88
2022/09/21 07:48:55;;;;;;;;;13.00;12.75;;;;;14.86;58.52;102117.09;4903389;29;45331;-88
2022/09/21 07:51:21;;;;;;;;;14.50;12.50;;;;;14.43;58.57;102042.09;4885732;29;47212;-88
2022/09/21 07:53:47;;;;;;;;;9.25;9.00;;;;;14.46;59.14;102036.63;4901059;28;45367;-89
2022/09/21 07:59:33;;;;;;;;;14.50;11.75;;;;;14.48;58.49;102031.19;4824831;29;45292;-88
2022/09/21 08:01:59;;;;;;;;;13.75;13.75;;;;;14.55;58.59;102022.06;4825614;29;47389;-88
2022/09/21 08:04:24;;;;;;;;;13.50;12.50;;;;;14.96;58.32;102091.69;4870918;29;45525;-90
2022/09/21 08:06:50;;;;;;;;;14.00;11.25;;;;;14.58;58.29;102022.00;4883647;29;45432;-90
2022/09/21 08:09:15;;;;;;;;;13.00;12.75;;;;;14.57;58.24;102012.16;4903813;28;45719;-91
2022/09/21 08:11:43;;;;;;;;;13.25;13.25;;;;;14.98;58.25;102073.72;4901396;28;45356;-88
2022/09/21 08:14:18;;;;;;;;;16.25;13.00;;;;;15.18;58.38;102108.06;4900120;29;45681;-87
2022/09/21 08:16:45;;;;;;;;;13.75;13.75;;;;;14.77;57.79;102038.47;4881011;29;45361;-86
2022/09/21 08:19:11;;;;;;;;;14.50;12.75;;;;;14.97;57.65;102069.28;4894846;28;45517;-86
2022/09/21 08:21:37;;;;;;;;;13.75;13.75;;;;;14.82;57.49;102036.53;4879891;29;47566;-85
2022/09/21 08:24:02;;;;;;;;;12.50;12.50;;;;;14.82;57.84;102036.53;4883323;29;45407;-88
2022/09/21 08:26:27;;;;;;;;;15.25;14.25;;;;;15.27;57.68;102105.13;4884400;29;45912;-85
2022/09/21 08:28:57;;;;;;;;;6.00;6.00;;;;;15.03;57.05;102054.75;4884723;29;45288;-84
2022/09/21 08:31:23;;;;;;;;;15.25;10.50;;;;;15.38;57.17;102121.84;4886252;29;48174;-85
2022/09/21 08:33:49;;;;;;;;;11.50;11.50;;;;;15.28;57.22;102087.16;4885912;29;45566;-86
2022/09/21 08:36:25;;;;;;;;;12.00;11.00;;;;;15.07;57.11;102040.28;4881751;29;45451;-87
2022/09/21 08:38:52;;;;;;;;;12.75;10.75;;;;;15.40;57.15;102086.78;4902445;29;45818;-88
2022/09/21 08:41:25;;;;;;;;;12.25;10.00;;;;;15.19;56.68;102051.56;4885771;29;47285;-87
2022/09/21 08:44:25;;;;;;;;;10.50;10.00;;;;;15.43;56.92;102075.91;4902106;28;45471;-87
2022/09/21 08:47:03;;;;;;;;;9.25;9.00;;;;;15.26;56.34;102037.91;4858650;29;45705;-87
2022/09/21 08:49:32;;;;;;;;;12.50;11.50;;;;;15.23;56.49;102029.94;4899652;29;45557;-87
2022/09/21 08:52:04;;;;;;;;;12.50;12.00;;;;;15.30;56.01;102043.16;4901642;29;46388;-88
2022/09/21 08:54:37;;;;;;;;;16.25;13.25;;;;;15.82;56.64;102113.31;4902244;29;45497;-87
2022/09/21 08:57:02;;;;;;;;;14.00;11.75;;;;;15.43;55.76;102051.69;4899110;29;45203;-88
2022/09/21 08:59:28;;;;;;;;;7.75;7.50;;;;;15.41;56.09;102031.19;4884716;29;45882;-87
2022/09/21 09:02:04;;;;;;;;;11.25;10.00;;;;;15.55;56.30;102054.03;4885988;29;47129;-87
2022/09/21 09:04:58;;;;;;;;;16.25;11.50;;;;;15.73;55.63;102070.50;4892533;28;45411;-87
2022/09/21 09:07:58;;;;;;;;;12.75;11.25;;;;;15.50;56.27;102033.56;4898959;29;45489;-88
2022/09/21 09:10:59;;;;;;;;;8.25;6.00;;;;;16.09;56.15;102119.59;4883896;29;45589;-88
2022/09/21 09:13:45;;;;;;;;;8.25;7.00;;;;;16.16;55.19;102114.00;4869144;29;46698;-88
2022/09/21 09:16:19;;;;;;;;;8.00;8.00;;;;;16.20;55.71;102119.22;4900991;29;45346;-89
2022/09/21 09:18:57;;;;;;;;;7.25;7.25;;;;;16.25;55.06;102119.94;4902982;29;45422;-86
2022/09/21 09:21:28;;;;;;;;;8.50;8.50;;;;;16.30;54.92;102119.78;4893475;29;45359;-88
2022/09/21 09:24:01;;;;;;;;;8.50;7.25;;;;;16.25;54.59;102098.38;4876828;29;47196;-88
2022/09/21 09:26:41;;;;;;;;;7.50;7.50;;;;;16.41;54.75;102116.72;4881597;29;45620;-88
2022/09/21 09:29:24;;;;;;;;;9.75;8.25;;;;;16.46;55.18;102117.44;4901213;29;45303;-89
2022/09/21 09:31:53;;;;;;;;;9.25;8.75;;;;;16.53;54.60;102112.72;4897799;29;45581;-88
2022/09/21 09:34:36;;;;;;;;;7.25;7.25;;;;;16.55;54.06;102109.00;4892311;29;45388;-87
2022/09/21 09:37:12;;;;;;;;;10.00;8.25;;;;;16.55;53.92;102111.72;4897974;29;45469;-89
2022/09/21 09:39:40;;;;;;;;;9.25;9.25;;;;;16.56;53.77;102102.69;4886283;29;45557;-87
2022/09/21 09:42:23;;;;;;;;;6.75;6.75;;;;;16.62;54.56;102110.59;4884934;29;45297;-87
2022/09/21 09:45:08;;;;;;;;;10.50;8.75;;;;;16.65;53.90;102102.34;4891246;29;45454;-89
2022/09/21 09:48:01;;;;;;;;;12.00;9.50;;;;;16.61;53.57;102091.75;4884413;29;45543;-84
2022/09/21 09:50:32;;;;;;;;;10.50;10.50;;;;;16.72;53.53;102107.53;4902650;29;45323;-84
2022/09/21 09:53:05;;;;;;;;;11.25;11.00;;;;;16.75;53.45;102110.13;4899184;29;45551;-84
2022/09/21 09:55:40;;;;;;;;;8.25;8.25;;;;;16.78;53.65;102112.72;4885605;29;48470;-84
2022/09/21 09:58:19;;;;;;;;;9.00;9.00;;;;;16.82;53.41;102111.66;4901502;29;45416;-89
2022/09/21 10:00:49;;;;;;;;;11.25;11.00;;;;;16.92;53.68;102114.91;4886003;29;45414;-89
2022/09/21 10:03:18;;;;;;;;;9.25;9.00;;;;;16.94;53.85;102094.16;4885348;28;45502;-87
2022/09/21 10:05:53;;;;;;;;;11.75;11.00;;;;;16.79;53.53;102053.34;4880114;29;48134;-88
2022/09/21 10:08:38;;;;;;;;;10.00;9.00;;;;;17.14;53.12;102104.19;4883296;29;45605;-88
2022/09/21 10:11:14;;;;;;;;;13.00;11.00;;;;;17.04;52.86;102071.31;4885838;29;45312;-87
2022/09/21 10:13:51;;;;;;;;;8.50;8.50;;;;;17.10;53.36;102078.28;4893965;29;45849;-88
2022/09/21 10:16:22;;;;;;;;;11.50;10.75;;;;;17.01;52.04;102058.81;4885555;29;47183;-88
2022/09/21 10:18:55;;;;;;;;;9.25;9.00;;;;;17.27;51.97;102089.28;4890757;29;45449;-88
2022/09/21 10:21:34;;;;;;;;;9.25;8.75;;;;;17.28;52.60;102091.06;4885535;29;45364;-87
2022/09/21 10:24:23;;;;;;;;;9.00;9.00;;;;;16.99;52.50;102035.53;4885554;29;45796;-87
2022/09/21 10:30:29;;;;;;;;;9.25;9.25;;;;;17.37;52.26;102085.31;4852978;28;45626;-87
2022/09/21 10:32:58;;;;;;;;;11.75;10.75;;;;;17.25;51.59;102058.78;4882089;29;45455;-88
2022/09/21 10:35:25;;;;;;;;;10.50;10.00;;;;;17.02;51.54;102008.44;4882870;29;45563;-87
2022/09/21 10:38:15;;;;;;;;;8.25;8.25;;;;;17.21;51.70;102052.66;4895386;29;46366;-88
2022/09/21 10:40:43;;;;;;;;;10.00;9.50;;;;;17.48;50.72;102081.31;4896505;28;45906;-86
2022/09/21 10:43:33;;;;;;;;;8.50;8.00;;;;;17.10;52.16;102018.94;4901960;29;45384;-88
2022/09/21 10:45:59;;;;;;;;;8.75;7.00;;;;;17.31;51.55;102038.81;4886877;29;45291;-87
2022/09/21 10:48:30;;;;;;;;;8.00;5.50;;;;;17.19;51.44;102005.97;4902761;29;46282;-88
2022/09/21 10:51:46;;;;;;;;;;;;;;;;;;;;;
2022/09/21 10:54:22;;;;;;;;;6.50;6.50;;;;;17.68;50.77;102077.78;4901440;23;68918;-76
2022/09/21 10:56:53;;;;;;;;;6.50;6.50;;;;;17.71;50.49;102078.53;4902467;28;45462;-76
2022/09/21 10:59:28;;;;;;;;;7.00;6.00;;;;;17.64;50.70;102052.75;4899806;29;45617;-76
2022/09/21 11:01:56;;;;;;;;;8.00;7.00;;;;;17.81;49.95;102072.75;4900335;29;45688;-77
2022/09/21 11:04:40;;;;;;;;;5.50;5.50;;;;;17.83;50.44;102070.88;4898242;29;45514;-76
2022/09/21 11:07:26;;;;;;;;;4.00;3.25;;;;;17.65;49.98;102038.28;4909513;28;45464;-76
2022/09/21 11:10:04;;;;;;;;;4.50;4.50;;;;;17.79;49.67;102051.19;4873641;29;47020;-76
2022/09/21 11:12:35;;;;;;;;;6.50;4.50;;;;;17.85;49.69;102052.78;4902276;29;45345;-76
2022/09/21 11:15:24;;;;;;;;;7.75;6.25;;;;;17.54;49.60;102006.34;4902776;29;45628;-77
2022/09/21 11:18:19;;;;;;;;;6.50;5.75;;;;;17.64;49.39;102028.44;4886488;29;45517;-77
2022/09/21 11:21:09;;;;;;;;;3.50;3.25;;;;;17.86;49.52;102059.94;4901886;29;46625;-76
2022/09/21 11:23:40;;;;;;;;;4.50;4.50;;;;;17.90;49.79;102057.06;4905970;29;45386;-76
2022/09/21 11:26:27;;;;;;;;;8.00;5.00;;;;;17.94;49.29;102055.13;4904247;29;45354;-76
2022/09/21 11:29:12;;;;;;;;;4.00;4.00;;;;;17.72;49.01;102010.06;4883694;29;45574;-76
2022/09/21 11:31:59;;;;;;;;;4.75;4.75;;;;;17.96;48.86;102051.41;4900277;29;46038;-77
2022/09/21 11:34:57;;;;;;;;;4.25;4.00;;;;;17.91;48.80;102033.66;4898991;28;45700;-76
2022/09/21 11:37:44;;;;;;;;;2.75;2.75;;;;;17.94;49.31;102036.19;4905433;28;45490;-77
2022/09/21 11:40:47;;;;;;;;;3.25;3.25;;;;;18.03;48.71;102038.53;4901006;29;45447;-76
2022/09/21 11:43:46;;;;;;;;;2.25;2.25;;;;;18.05;48.50;102036.63;4901453;29;46164;-76
2022/09/21 11:46:29;;;;;;;;;3.75;3.75;;;;;18.04;48.31;102026.78;4891393;29;45590;-77
2022/09/21 11:49:27;;;;;;;;;5.50;4.25;;;;;17.84;48.06;101980.78;4901882;29;45285;-76
2022/09/21 11:52:15;;;;;;;;;2.25;1.50;;;;;17.84;47.64;101975.38;4893995;29;45434;-76
2022/09/21 11:54:59;;;;;;;;;3.50;2.50;;;;;18.15;47.32;102034.41;4901811;29;45503;-77
2022/09/21 11:57:44;;;;;;;;;4.50;3.50;;;;;18.17;46.99;102024.41;4901832;29;45498;-76
2022/09/21 12:00:15;;;;;;;;;4.50;3.00;;;;;18.19;46.89;102022.50;4891244;29;45447;-76
2022/09/21 12:03:14;;;;;;;;;3.00;3.00;;;;;18.27;46.83;102024.88;4901860;29;45340;-77
2022/09/21 12:05:51;;;;;;;;;4.75;3.00;;;;;18.28;46.58;102021.25;4886252;28;47429;-76
2022/09/21 12:08:42;;;;;;;;;2.75;2.75;;;;;18.32;46.55;102014.75;4884071;29;45558;-76
2022/09/21 12:11:32;;;;;;;;;4.00;3.50;;;;;18.36;46.24;102010.97;4901841;29;45434;-76
2022/09/21 12:14:00;;;;;;;;;3.25;3.25;;;;;18.36;45.83;102010.06;4897234;29;45850;-76
2022/09/21 12:16:34;;;;;;;;;3.50;3.50;;;;;18.38;46.05;102013.59;4901323;29;45295;-77
2022/09/21 12:19:06;;;;;;;;;2.75;2.75;;;;;18.41;46.07;101998.13;4901454;29;45341;-79
2022/09/21 12:21:39;;;;;;;;;3.25;3.25;;;;;18.37;46.33;101998.31;4893153;29;45379;-77
2022/09/21 12:24:16;;;;;;;;;4.75;2.00;;;;;18.47;45.86;102011.34;4900070;29;45371;-77
2022/09/21 12:26:47;;;;;;;;;1.50;1.25;;;;;18.30;45.14;101984.22;4883220;29;47335;-76
2022/09/21 12:29:24;;;;;;;;;2.50;1.50;;;;;18.50;45.00;102013.03;4901782;29;45719;-77
2022/09/21 12:32:10;;;;;;;;;3.75;2.50;;;;;18.46;45.04;102000.59;4900934;29;45477;-78
2022/09/21 12:34:43;;;;;;;;;2.25;2.25;;;;;18.35;44.49;101984.88;4907562;28;45552;-78
2022/09/21 12:37:21;;;;;;;;;1.75;1.75;;;;;18.38;44.60;101987.44;4904894;28;48113;-78
2022/09/21 12:39:58;;;;;;;;;1.50;1.50;;;;;18.54;45.02;102000.25;4904773;29;45459;-78
2022/09/21 12:42:34;;;;;;;;;1.75;1.50;;;;;18.44;44.90;101987.16;4900024;29;45381;-82
2022/09/21 12:45:11;;;;;;;;;1.00;1.00;;;;;18.55;44.25;101983.09;4891404;29;45473;-82
2022/09/21 12:48:03;;;;;;;;;1.75;1.75;;;;;18.62;45.17;101996.25;4893229;29;47572;-77
2022/09/21 12:50:47;;;;;;;;;1.75;1.75;;;;;18.54;45.17;101968.66;4889513;29;45890;-76
2022/09/21 12:53:37;;;;;;;;;2.50;1.75;;;;;18.70;44.45;101988.66;4897964;29;45409;-74
2022/09/21 12:56:13;;;;;;;;;2.50;2.00;;;;;18.74;44.54;101989.38;4884199;29;46674;-82
2022/09/21 12:58:50;;;;;;;;;3.75;2.75;;;;;18.78;44.08;101990.13;4899438;28;45956;-77
2022/09/21 13:01:15;;;;;;;;;3.00;2.00;;;;;18.79;43.50;101989.16;4892978;28;45705;-78
2022/09/21 13:03:48;;;;;;;;;3.25;1.50;;;;;18.67;43.46;101967.16;4895210;28;45900;-76
2022/09/21 13:06:33;;;;;;;;;2.00;1.50;;;;;18.79;43.13;101984.63;4884419;29;45776;-78
2022/09/21 13:09:00;;;;;;;;;3.00;3.00;;;;;18.61;43.40;101950.34;4883687;29;47269;-79
2022/09/21 13:11:26;;;;;;;;;2.50;2.25;;;;;18.70;43.49;101953.50;4884335;28;45955;-78
2022/09/21 13:14:03;;;;;;;;;1.75;1.75;;;;;18.87;43.71;101968.06;4899628;28;45864;-74
2022/09/21 13:16:31;;;;;;;;;2.00;2.00;;;;;18.86;43.52;101961.78;4877723;29;45724;-78
2022/09/21 13:19:15;;;;;;;;;2.00;1.75;;;;;18.93;43.52;101969.59;4897628;29;45557;-79
2022/09/21 13:21:43;;;;;;;;;2.25;1.25;;;;;18.94;42.98;101969.53;4900293;29;45447;-80
2022/09/21 13:24:25;;;;;;;;;2.00;2.00;;;;;18.77;42.69;101939.69;4893392;29;45691;-79
2022/09/21 13:26:54;;;;;;;;;2.00;2.00;;;;;18.78;42.68;101939.63;4898899;29;46303;-80
2022/09/21 13:29:19;;;;;;;;;0.75;0.75;;;;;18.99;42.87;101967.47;4899604;29;46388;-80
2022/09/21 13:31:58;;;;;;;;;0.50;0.50;;;;;19.02;42.45;101963.75;4880343;29;45482;-77
2022/09/21 13:34:35;;;;;;;;;1.00;1.00;;;;;18.95;42.45;101943.38;4900825;28;45640;-89
2022/09/21 13:37:10;;;;;;;;;1.25;1.25;;;;;18.99;42.03;101935.00;4901963;28;45804;-80
2022/09/21 13:39:41;;;;;;;;;2.00;1.75;;;;;19.07;42.60;101950.88;4894033;28;45287;-79
2022/09/21 13:42:29;;;;;;;;;3.00;2.00;;;;;19.11;42.54;101954.31;4895115;28;45606;-79
2022/09/21 13:44:56;;;;;;;;;2.25;1.50;;;;;19.00;42.13;101925.06;4899916;28;45723;-80
2022/09/21 13:47:31;;;;;;;;;2.00;2.00;;;;;18.98;42.27;101911.63;4897313;29;45505;-79
2022/09/21 13:49:59;;;;;;;;;2.00;2.00;;;;;18.99;42.42;101904.38;4896198;28;45699;-78
2022/09/21 13:52:47;;;;;;;;;1.50;1.50;;;;;19.23;42.78;101937.47;4900433;29;45571;-79
2022/09/21 13:55:47;;;;;;;;;1.00;1.00;;;;;19.24;42.07;101934.69;4893215;29;45704;-80
2022/09/21 13:58:26;;;;;;;;;1.25;1.25;;;;;19.22;42.12;101928.47;4892418;29;45482;-79
2022/09/21 14:01:05;;;;;;;;;2.00;2.00;;;;;19.00;42.32;101884.50;4884307;29;46120;-79
2022/09/21 14:03:46;;;;;;;;;2.75;2.00;;;;;19.14;42.10;101910.84;4900174;29;45755;-79
2022/09/21 14:06:16;;;;;;;;;3.00;2.00;;;;;19.21;42.01;101924.03;4900906;28;45434;-79
2022/09/21 14:08:59;;;;;;;;;1.00;1.00;;;;;18.97;41.95;101877.38;4896785;29;45811;-79
2022/09/21 14:11:32;;;;;;;;;2.00;2.00;;;;;19.25;41.94;101924.75;4896062;29;45544;-79
2022/09/21 14:14:10;;;;;;;;;2.00;2.00;;;;;19.25;41.93;101922.91;4909602;28;45490;-79
2022/09/21 14:16:40;;;;;;;;;2.00;2.00;;;;;19.25;42.17;101914.78;4890832;29;45365;-79
2022/09/21 14:19:18;;;;;;;;;2.00;2.00;;;;;19.27;41.79;101917.41;4900049;29;45487;-79
2022/09/21 14:22:02;;;;;;;;;1.25;1.25;;;;;19.31;41.94;101907.28;4900226;29;48090;-79
2022/09/21 14:24:41;;;;;;;;;2.00;2.00;;;;;19.31;41.63;101907.28;4885470;29;45541;-79
2022/09/21 14:27:28;;;;;;;;;1.25;1.25;;;;;19.32;41.73;101906.34;4901221;29;45487;-79
2022/09/21 14:30:00;;;;;;;;;2.50;2.50;;;;;19.31;41.92;101904.59;4897106;28;45588;-79
2022/09/21 14:32:34;;;;;;;;;1.00;1.00;;;;;19.10;41.64;101866.84;4889700;29;48304;-79
2022/09/21 14:35:09;;;;;;;;;3.00;2.00;;;;;19.34;41.93;101899.88;4902035;28;45509;-78
2022/09/21 14:37:44;;;;;;;;;1.75;1.00;;;;;19.19;41.54;101874.47;4884605;29;45547;-79
2022/09/21 14:40:20;;;;;;;;;3.00;1.75;;;;;19.38;41.26;101903.34;4901515;29;45343;-79
2022/09/21 14:42:47;;;;;;;;;2.00;2.00;;;;;19.34;41.36;101885.50;4879337;29;47079;-80
2022/09/21 14:45:17;;;;;;;;;2.25;1.75;;;;;19.21;41.53;101861.75;4898735;29;45459;-79
2022/09/21 14:48:01;;;;;;;;;2.00;1.50;;;;;19.43;41.08;101895.88;4900872;29;46583;-80
2022/09/21 14:50:37;;;;;;;;;2.00;2.00;;;;;19.44;41.44;101897.59;4892190;28;45459;-80
2022/09/21 14:53:13;;;;;;;;;2.50;1.25;;;;;19.45;41.77;101896.66;4901311;28;45767;-79
2022/09/21 14:55:55;;;;;;;;;2.00;2.00;;;;;19.43;41.59;101895.88;4897933;29;45535;-79
2022/09/21 14:58:39;;;;;;;;;2.25;2.00;;;;;19.45;41.68;101885.81;4899753;29;45606;-79
2022/09/21 15:01:33;;;;;;;;;5.00;1.75;;;;;19.48;41.11;101879.34;4884281;29;45672;-79
2022/09/21 15:04:24;;;;;;;;;2.00;2.00;;;;;19.51;41.10;101882.81;4901351;29;46330;-80
2022/09/21 15:13:04;;;;;;;;;1.00;1.00;;;;;19.43;40.95;101866.06;4898793;28;46751;-79
2022/09/21 15:15:43;;;;;;;;;2.75;1.75;;;;;19.49;40.45;101870.28;4893631;28;46534;-79
2022/09/21 15:18:19;;;;;;;;;2.00;2.00;;;;;19.48;40.53;101866.72;4899307;28;46740;-79
2022/09/21 15:20:58;;;;;;;;;2.00;1.00;;;;;19.48;40.85;101860.41;4889074;29;45385;-79
2022/09/21 15:23:25;;;;;;;;;1.00;0.50;;;;;19.33;40.37;101833.19;4900911;28;45486;-79
2022/09/21 15:26:02;;;;;;;;;2.00;1.00;;;;;19.34;40.38;101834.06;4901499;29;45512;-79
2022/09/21 15:28:51;;;;;;;;;1.00;1.00;;;;;19.56;39.84;101866.28;4901619;29;45841;-79
2022/09/21 15:31:17;;;;;;;;;0.25;0.25;;;;;19.44;39.83;101857.88;4882138;29;45708;-79
2022/09/21 15:33:45;;;;;;;;;2.25;0.75;;;;;19.30;39.74;101830.63;4897862;29;45569;-79
2022/09/21 15:36:33;;;;;;;;;1.25;1.25;;;;;19.53;39.59;101859.22;4888532;29;45594;-79
2022/09/21 15:38:58;;;;;;;;;1.00;1.00;;;;;19.51;39.56;101858.44;4884085;29;45628;-79
2022/09/21 15:41:48;;;;;;;;;2.50;1.00;;;;;19.39;39.23;101840.97;4900045;29;45527;-80
2022/09/21 15:44:21;;;;;;;;;1.00;1.00;;;;;19.46;39.40;101854.19;4899810;29;45632;-80
2022/09/21 15:46:56;;;;;;;;;1.50;0.75;;;;;19.39;39.85;101834.69;4896170;29;45454;-79
2022/09/21 15:49:22;;;;;;;;;0.75;0.75;;;;;19.46;39.56;101843.38;4884004;29;45485;-79
2022/09/21 15:51:57;;;;;;;;;3.00;1.00;;;;;19.50;39.15;101845.84;4881561;29;46295;-80
2022/09/21 15:54:34;;;;;;;;;1.00;1.00;;;;;19.38;39.80;101822.13;4899356;29;45442;-80
2022/09/21 15:57:05;;;;;;;;;2.00;1.00;;;;;19.54;39.51;101852.84;4901667;29;45679;-79
2022/09/21 15:59:32;;;;;;;;;4.00;2.00;;;;;19.54;39.31;101850.13;4901862;29;45600;-80
2022/09/21 16:02:09;;;;;;;;;2.25;1.00;;;;;19.56;39.59;101847.34;4884377;29;45464;-79
2022/09/21 16:04:38;;;;;;;;;1.75;1.75;;;;;19.43;39.20;101837.16;4899039;28;45526;-80
2022/09/21 16:07:24;;;;;;;;;1.50;1.50;;;;;19.40;39.28;101829.19;4897944;29;46109;-80
2022/09/21 16:09:50;;;;;;;;;1.00;1.00;;;;;19.57;38.72;101862.63;4902716;29;45368;-79
2022/09/21 16:12:25;;;;;;;;;2.00;2.00;;;;;19.56;39.37;101855.47;4900243;29;45757;-79
2022/09/21 16:14:54;;;;;;;;;1.00;1.00;;;;;19.54;39.08;101851.97;4901448;29;45368;-79
2022/09/21 16:17:26;;;;;;;;;2.25;0.75;;;;;19.58;38.81;101856.28;4901587;29;45581;-80
2022/09/21 16:19:55;;;;;;;;;3.25;1.25;;;;;19.58;38.81;101859.84;4901684;29;45345;-79
2022/09/21 16:22:28;;;;;;;;;1.25;1.00;;;;;19.58;38.57;101861.69;4903158;29;45904;-79
2022/09/21 16:24:58;;;;;;;;;1.00;1.00;;;;;19.47;38.98;101850.53;4880529;29;45626;-80
2022/09/21 16:27:31;;;;;;;;;1.25;1.00;;;;;19.48;38.90;101849.56;4895377;29;46456;-79
2022/09/21 16:29:58;;;;;;;;;3.50;3.00;;;;;19.43;38.99;101841.72;4899027;29;45626;-80
2022/09/21 16:32:33;;;;;;;;;2.75;2.00;;;;;19.51;38.76;101860.25;4897078;29;45566;-81
2022/09/21 16:35:20;;;;;;;;;1.00;1.00;;;;;19.33;39.10;101824.16;4894898;28;45471;-82
2022/09/21 16:37:46;;;;;;;;;1.00;1.00;;;;;19.45;39.41;101847.91;4886105;29;47929;-79
2022/09/21 16:40:12;;;;;;;;;2.25;1.00;;;;;19.51;39.58;101861.16;4899571;29;45803;-81
2022/09/21 16:42:39;;;;;;;;;1.25;1.25;;;;;19.40;39.28;101836.44;4901263;29;45586;-82
2022/09/21 16:45:15;;;;;;;;;2.00;2.00;;;;;19.44;39.08;101847.03;4908352;28;45506;-81
2022/09/21 16:47:40;;;;;;;;;1.00;1.00;;;;;19.29;39.22;101819.88;4890984;29;45772;-80
2022/09/21 16:50:11;;;;;;;;;3.00;1.00;;;;;19.19;39.60;101806.81;4882371;29;45707;-77
2022/09/21 16:52:37;;;;;;;;;1.75;0.50;;;;;19.44;39.50;101860.59;4899980;29;45765;-76
2022/09/21 16:55:02;;;;;;;;;3.25;2.00;;;;;19.42;39.68;101862.47;4900597;29;45476;-77
2022/09/21 16:57:27;;;;;;;;;2.00;2.00;;;;;19.23;39.40;101835.50;4886768;29;46245;-76
2022/09/21 16:59:53;;;;;;;;;3.00;2.00;;;;;19.17;39.16;101818.69;4887386;29;45680;-80
2022/09/21 17:02:18;;;;;;;;;2.25;2.25;;;;;19.18;39.05;101826.72;4900041;28;45943;-80
2022/09/21 17:04:44;;;;;;;;;4.00;2.00;;;;;19.39;39.45;101859.91;4899445;29;45931;-79
2022/09/21 17:07:11;;;;;;;;;1.75;1.75;;;;;19.22;39.26;101841.84;4895151;29;45644;-79
2022/09/21 17:09:41;;;;;;;;;2.50;2.00;;;;;19.36;39.38;101856.50;4883279;29;45624;-79
2022/09/21 17:12:08;;;;;;;;;3.00;3.00;;;;;19.34;39.65;101859.28;4899432;29;45881;-83
2022/09/21 17:14:35;;;;;;;;;2.75;2.25;;;;;19.28;39.53;101850.59;4874004;29;45933;-79
2022/09/21 17:17:07;;;;;;;;;2.75;2.75;;;;;19.31;38.99;101875.72;4899588;28;46312;-85
2022/09/21 17:19:33;;;;;;;;;4.00;2.25;;;;;19.04;38.95;101826.56;4898287;29;45762;-81
2022/09/21 17:21:59;;;;;;;;;3.25;2.25;;;;;19.11;38.75;101837.94;4881021;29;45498;-81
2022/09/21 17:24:25;;;;;;;;;2.75;2.00;;;;;19.11;39.17;101846.94;4883657;29;45970;-81
2022/09/21 17:26:51;;;;;;;;;3.00;3.00;;;;;19.01;39.03;101830.31;4900233;29;46413;-82
2022/09/21 17:29:22;;;;;;;;;2.75;2.75;;;;;19.17;39.27;101853.88;4899357;29;45518;-80
2022/09/21 17:31:55;;;;;;;;;2.00;2.00;;;;;19.19;39.26;101860.06;4899328;29;45494;-79
2022/09/21 17:34:26;;;;;;;;;2.00;2.00;;;;;19.13;39.34;101846.84;4898126;29;45576;-78
2022/09/21 17:36:52;;;;;;;;;3.00;2.00;;;;;19.14;39.53;101860.31;4902933;28;45741;-80
2022/09/21 17:39:19;;;;;;;;;3.50;3.50;;;;;19.14;39.20;101863.00;4900162;29;45409;-80
2022/09/21 17:41:52;;;;;;;;;4.00;3.00;;;;;19.14;39.03;101857.59;4899990;28;45648;-81
2022/09/21 17:44:44;;;;;;;;;5.75;4.00;;;;;18.80;39.27;101804.28;4900239;28;45754;-80
2022/09/21 17:47:20;;;;;;;;;4.50;3.00;;;;;19.16;39.75;101869.25;4898902;28;45831;-80
2022/09/21 17:49:47;;;;;;;;;4.00;3.50;;;;;18.89;39.25;101828.19;4893074;28;45574;-80
2022/09/21 17:55:19;;;;;;;;;6.50;4.75;;;;;18.87;39.63;101835.53;4896435;29;45932;-71
2022/09/21 18:01:57;;;;;;;;;;;;;;;;;;;;;
2022/09/21 18:07:59;;;;;;;;;5.75;4.75;;;;;18.84;39.68;101860.00;5306767;23;45902;-72
2022/09/21 18:10:26;;;;;;;;;5.25;5.25;;;;;18.99;40.22;101889.00;4898456;29;45798;-73
2022/09/21 18:13:13;;;;;;;;;5.25;5.25;;;;;18.98;40.15;101891.81;4900059;29;45663;-72
2022/09/21 18:15:53;;;;;;;;;6.25;5.25;;;;;18.94;40.48;101890.19;4900363;28;45558;-71
2022/09/21 18:18:34;;;;;;;;;6.75;6.75;;;;;18.82;40.08;101872.72;4899352;29;45745;-71
2022/09/21 18:21:04;;;;;;;;;5.25;5.25;;;;;18.87;40.41;101890.50;4898218;29;45439;-73
2022/09/21 18:23:49;;;;;;;;;4.50;4.50;;;;;18.73;40.40;101862.31;4899790;29;45868;-73
2022/09/21 18:26:15;;;;;;;;;5.00;5.00;;;;;18.62;40.21;101849.34;4900468;29;45447;-70
2022/09/21 18:28:58;;;;;;;;;4.50;4.50;;;;;18.85;40.05;101900.50;4898218;28;45737;-73
2022/09/21 18:31:48;;;;;;;;;7.00;7.00;;;;;18.81;40.67;101893.47;4896090;29;46479;-74
2022/09/21 18:34:14;;;;;;;;;9.00;5.75;;;;;18.83;40.31;101905.13;4897327;28;45492;-74
2022/09/21 18:36:48;;;;;;;;;7.25;7.25;;;;;18.62;40.44;101876.38;4899253;28;45818;-74
2022/09/21 18:39:21;;;;;;;;;6.25;6.00;;;;;18.63;41.03;101873.59;4899543;29;45663;-72
2022/09/21 18:42:15;;;;;;;;;7.25;7.25;;;;;18.74;41.18;101889.31;4881136;29;48283;-73
2022/09/21 18:44:45;;;;;;;;;6.50;6.50;;;;;18.61;40.88;101874.63;4863262;29;45575;-72
2022/09/21 18:47:21;;;;;;;;;8.25;8.25;;;;;18.58;40.81;101870.25;4882146;29;45709;-73
2022/09/21 18:50:02;;;;;;;;;8.50;6.75;;;;;18.78;40.89;101911.69;4895541;29;45450;-71
2022/09/21 18:52:31;;;;;;;;;11.75;9.25;;;;;18.75;40.74;101912.72;4891808;28;45664;-73
2022/09/21 18:54:56;;;;;;;;;8.50;8.50;;;;;18.48;40.68;101872.50;4897812;29;45715;-78
2022/09/21 18:57:22;;;;;;;;;7.75;7.00;;;;;18.70;40.48;101918.34;4886728;28;45707;-73
2022/09/21 18:59:49;;;;;;;;;8.00;5.00;;;;;18.70;40.56;101923.75;4897770;29;45744;-73
2022/09/21 19:02:17;;;;;;;;;9.50;7.50;;;;;18.60;40.75;101917.03;4898194;29;46151;-74
2022/09/21 19:04:44;;;;;;;;;8.25;6.75;;;;;18.41;41.05;101879.19;4898496;29;45672;-73
2022/09/21 19:07:29;;;;;;;;;8.50;6.75;;;;;18.60;41.44;101910.75;4896850;28;45476;-72
2022/09/21 19:10:04;;;;;;;;;5.00;4.50;;;;;18.64;41.49;101928.56;4898962;29;45540;-72
2022/09/21 19:13:01;;;;;;;;;8.25;7.00;;;;;18.46;41.30;101904.16;4897756;29;46285;-71
2022/09/21 19:15:55;;;;;;;;;7.00;6.00;;;;;18.46;41.46;101901.47;4893440;29;45446;-70
2022/09/21 19:18:44;;;;;;;;;7.00;7.00;;;;;18.32;41.20;101883.16;4871589;29;45684;-70
2022/09/21 19:21:16;;;;;;;;;10.25;8.75;;;;;18.35;41.05;101890.28;4899538;28;45613;-73
2022/09/21 19:24:06;;;;;;;;;8.50;8.00;;;;;18.52;41.42;101922.78;4887894;29;47858;-71
2022/09/21 19:26:43;;;;;;;;;5.25;5.25;;;;;18.28;41.31;101883.41;4881833;29;45504;-72
2022/09/21 19:29:40;;;;;;;;;5.50;5.50;;;;;18.49;41.63;101922.03;4891653;29;45803;-72
2022/09/21 19:32:14;;;;;;;;;9.75;8.75;;;;;18.33;41.10;101906.56;4896769;29;45755;-72
2022/09/21 19:34:40;;;;;;;;;11.00;8.75;;;;;18.45;41.39;101923.16;4889856;28;46570;-73
2022/09/21 19:37:05;;;;;;;;;10.50;9.00;;;;;18.26;41.57;101896.97;4876349;29;45752;-73
2022/09/21 19:39:31;;;;;;;;;9.00;6.50;;;;;18.17;41.37;101885.72;4879888;28;45593;-72
2022/09/21 19:42:22;;;;;;;;;6.50;6.50;;;;;18.23;42.02;101891.72;4898607;29;45887;-74
2022/09/21 19:45:07;;;;;;;;;6.25;5.50;;;;;18.28;42.18;101903.19;4901542;28;46631;-73
2022/09/21 19:47:44;;;;;;;;;9.50;8.00;;;;;18.19;41.85;101889.22;4901581;29;45494;-73
2022/09/21 19:50:24;;;;;;;;;6.00;5.75;;;;;18.17;41.70;101888.41;4899347;29;45784;-73
2022/09/21 19:52:51;;;;;;;;;11.00;8.00;;;;;18.11;41.26;101890.47;4901148;29;45633;-72
2022/09/21 20:00:54;;;;;;;;;8.50;6.50;;;;;18.13;41.60;101904.78;4899953;29;45971;-76
2022/09/21 20:03:36;;;;;;;;;6.75;6.75;;;;;18.06;41.75;101888.91;4900012;29;45962;-76